Time;durP1;ratioP1;P1;durP2;ratioP2;P2;SDS_P1;SDS_P2;PMS_P1;PMS_P2;Temp;Humidity;BMP_temperature;BMP_pressure;BME280_temperature;BME280_humidity;BME280_pressure;Samples;Min_cycle;Max_cycle;Signal;HPM_P1;HPM_P2
2022/03/02 00:00:12;;;;;;;;;44.75;35.75;;;;;12.55;42.05;101745.22;2130127;27;47820;-52
2022/03/02 00:01:16;;;;;;;;;47.00;39.00;;;;;12.55;42.25;101742.56;2120828;27;47518;-53
2022/03/02 00:02:17;;;;;;;;;45.80;38.00;;;;;12.53;42.10;101747.03;2121584;27;47399;-52
2022/03/02 00:03:17;;;;;;;;;47.75;39.75;;;;;12.53;42.16;101745.22;2130047;27;46977;-54
2022/03/02 00:04:18;;;;;;;;;45.50;39.00;;;;;12.53;42.22;101745.22;2130571;27;47748;-53
2022/03/02 00:05:19;;;;;;;;;49.60;39.80;;;;;12.54;42.04;101743.44;2129930;27;47960;-53
2022/03/02 00:06:20;;;;;;;;;45.75;36.75;;;;;12.54;42.17;101738.13;2130392;27;47272;-54
2022/03/02 00:07:20;;;;;;;;;42.50;37.00;;;;;12.55;42.17;101747.88;2129878;27;47568;-55
2022/03/02 00:08:21;;;;;;;;;43.75;36.50;;;;;12.53;41.99;101739.91;2130582;27;47515;-50
2022/03/02 00:09:21;;;;;;;;;46.25;37.75;;;;;12.53;42.21;101741.69;2130107;27;48215;-50
2022/03/02 00:10:22;;;;;;;;;45.25;37.75;;;;;12.52;42.20;101743.47;2130470;27;48023;-51
2022/03/02 00:11:23;;;;;;;;;46.20;39.60;;;;;12.51;42.17;101738.19;2129885;27;47982;-53
2022/03/02 00:12:24;;;;;;;;;42.00;36.20;;;;;12.51;42.37;101738.19;2129482;27;47720;-53
2022/03/02 00:13:24;;;;;;;;;44.00;35.25;;;;;12.49;42.27;101738.19;2121441;27;47600;-49
2022/03/02 00:14:25;;;;;;;;;46.50;38.75;;;;;12.48;42.41;101739.09;2121854;27;47477;-53
2022/03/02 00:15:25;;;;;;;;;44.50;37.00;;;;;12.48;42.28;101732.91;2121652;27;47753;-51
2022/03/02 00:16:28;;;;;;;;;39.25;34.50;;;;;12.47;42.22;101737.34;2121545;27;47853;-53
2022/03/02 00:17:28;;;;;;;;;38.80;34.00;;;;;12.46;42.10;101727.59;2121153;27;47678;-53
2022/03/02 00:18:29;;;;;;;;;42.75;37.00;;;;;12.46;42.25;101727.59;2122195;27;47397;-54
2022/03/02 00:19:29;;;;;;;;;45.25;39.50;;;;;12.46;42.09;101727.59;2121441;27;48236;-52
2022/03/02 00:20:30;;;;;;;;;42.00;35.25;;;;;12.46;42.24;101716.06;2121673;27;47595;-54
2022/03/02 00:21:30;;;;;;;;;38.75;35.25;;;;;12.47;42.13;101723.16;2121271;27;47358;-52
2022/03/02 00:22:31;;;;;;;;;42.50;35.00;;;;;12.47;42.17;101725.81;2121841;27;47601;-52
2022/03/02 00:23:32;;;;;;;;;43.50;35.50;;;;;12.48;42.26;101719.59;2129708;27;47956;-51
2022/03/02 00:24:32;;;;;;;;;45.00;37.25;;;;;12.47;42.29;101724.03;2129378;27;47229;-51
2022/03/02 00:25:33;;;;;;;;;44.25;37.25;;;;;12.47;42.12;101716.03;2130052;27;47838;-50
2022/03/02 00:26:34;;;;;;;;;46.75;38.25;;;;;12.46;42.07;101713.41;2123157;27;47536;-49
2022/03/02 00:27:35;;;;;;;;;48.00;37.40;;;;;12.47;42.17;101713.38;2121343;27;48018;-52
2022/03/02 00:28:35;;;;;;;;;41.60;36.20;;;;;12.47;42.31;101712.50;2121482;27;47220;-51
2022/03/02 00:29:36;;;;;;;;;41.50;33.75;;;;;12.46;42.74;101708.09;2121652;27;47523;-53
2022/03/02 00:30:36;;;;;;;;;41.25;35.50;;;;;12.45;42.16;101711.63;2121246;27;47666;-50
2022/03/02 00:31:37;;;;;;;;;43.75;36.00;;;;;12.45;42.05;101714.28;2121378;27;47559;-54
2022/03/02 00:32:38;;;;;;;;;42.25;36.50;;;;;12.43;42.44;101711.66;2121140;27;47569;-49
2022/03/02 00:33:39;;;;;;;;;44.80;36.40;;;;;12.43;42.24;101711.66;2121436;27;48189;-53
2022/03/02 00:34:39;;;;;;;;;47.00;39.40;;;;;12.41;42.16;101710.78;2121471;27;47631;-52
2022/03/02 00:35:39;;;;;;;;;51.00;40.00;;;;;12.40;42.36;101708.16;2121365;27;47340;-52
2022/03/02 00:36:40;;;;;;;;;41.75;37.00;;;;;12.37;42.40;101709.97;2121475;27;47708;-51
2022/03/02 00:37:40;;;;;;;;;43.00;37.00;;;;;12.37;42.33;101703.75;2121344;27;47074;-55
2022/03/02 00:38:41;;;;;;;;;44.25;38.00;;;;;12.37;42.27;101709.09;2121558;27;47776;-51
2022/03/02 00:39:42;;;;;;;;;46.75;39.00;;;;;12.36;42.41;101713.53;2121728;27;47723;-50
2022/03/02 00:40:43;;;;;;;;;46.00;37.00;;;;;12.35;42.53;101718.88;2121328;27;48159;-50
2022/03/02 00:41:44;;;;;;;;;41.75;36.00;;;;;12.33;42.42;101707.38;2094814;28;47294;-51
2022/03/02 00:42:45;;;;;;;;;46.25;37.25;;;;;12.31;42.45;101707.34;2094473;28;47797;-52
2022/03/02 00:43:47;;;;;;;;;46.80;36.80;;;;;12.29;42.43;101709.16;2121722;27;47661;-53
2022/03/02 00:44:49;;;;;;;;;41.20;36.40;;;;;12.28;42.54;101712.72;2121218;27;48251;-52
2022/03/02 00:45:49;;;;;;;;;47.20;38.60;;;;;12.27;42.44;101710.09;2121701;27;47896;-54
2022/03/02 00:46:50;;;;;;;;;39.75;34.75;;;;;12.26;42.54;101701.22;2094734;28;48145;-51
2022/03/02 00:47:51;;;;;;;;;49.00;38.00;;;;;12.26;42.57;101711.00;2103172;28;47897;-51
2022/03/02 00:48:52;;;;;;;;;44.00;38.40;;;;;12.25;42.64;101703.91;2124636;27;48016;-51
2022/03/02 00:49:53;;;;;;;;;45.50;37.50;;;;;12.25;42.62;101702.13;2123982;27;48150;-53
2022/03/02 00:50:53;;;;;;;;;45.50;38.50;;;;;12.24;42.59;101705.69;2124903;27;47590;-54
2022/03/02 00:51:55;;;;;;;;;43.50;36.75;;;;;12.24;42.68;101702.16;2121054;27;46824;-53
2022/03/02 00:52:56;;;;;;;;;42.00;35.40;;;;;12.24;42.82;101705.69;2121515;27;47659;-53
2022/03/02 00:53:58;;;;;;;;;42.25;36.50;;;;;12.23;42.80;101693.28;2121441;27;47513;-53
2022/03/02 00:54:59;;;;;;;;;43.20;36.40;;;;;12.23;42.71;101700.41;2121222;27;47759;-52
2022/03/02 00:55:59;;;;;;;;;32.75;31.75;;;;;12.23;42.81;101697.72;2121599;27;47482;-55
2022/03/02 00:57:00;;;;;;;;;45.00;38.25;;;;;12.21;42.65;101702.19;2121308;27;47784;-55
2022/03/02 00:58:02;;;;;;;;;45.25;36.50;;;;;12.20;42.78;101696.00;2108924;27;47389;-53
2022/03/02 00:59:03;;;;;;;;;42.00;37.00;;;;;12.20;42.76;101700.44;2111828;27;47718;-53
2022/03/02 01:00:05;;;;;;;;;41.75;36.50;;;;;12.20;42.83;101695.13;2111675;27;47498;-52
2022/03/02 01:01:06;;;;;;;;;44.20;38.40;;;;;12.17;42.72;101704.00;2111727;27;47528;-53
2022/03/02 01:02:06;;;;;;;;;44.25;37.00;;;;;12.16;42.70;101701.34;2112014;27;47670;-50
2022/03/02 01:03:07;;;;;;;;;49.00;39.00;;;;;12.16;42.78;101698.69;2111868;27;47701;-50
2022/03/02 01:04:07;;;;;;;;;49.00;41.25;;;;;12.13;42.95;101699.63;2111550;27;47592;-52
2022/03/02 01:05:08;;;;;;;;;46.25;37.00;;;;;12.14;42.98;101698.72;2111864;27;47234;-52
2022/03/02 01:06:10;;;;;;;;;48.40;39.00;;;;;12.14;43.00;101695.19;2111954;27;47612;-50
2022/03/02 01:07:10;;;;;;;;;48.80;41.40;;;;;12.13;42.74;101704.06;2112665;27;47858;-54
2022/03/02 01:08:11;;;;;;;;;45.75;38.75;;;;;12.11;42.92;101690.78;2113364;27;47580;-53
2022/03/02 01:09:11;;;;;;;;;40.25;35.25;;;;;12.11;42.84;101693.44;2113477;27;47956;-52
2022/03/02 01:10:12;;;;;;;;;48.75;39.50;;;;;12.11;43.01;101698.78;2112953;27;47449;-52
2022/03/02 01:11:13;;;;;;;;;42.80;36.60;;;;;12.11;43.09;101688.13;2113352;27;48104;-53
2022/03/02 01:12:13;;;;;;;;;40.75;36.00;;;;;12.11;43.02;101688.13;2112803;27;47709;-51
2022/03/02 01:13:14;;;;;;;;;41.75;36.00;;;;;12.11;43.06;101692.56;2113406;27;47509;-52
2022/03/02 01:14:14;;;;;;;;;44.00;36.00;;;;;12.11;42.84;101692.56;2113553;27;47467;-53
2022/03/02 01:15:15;;;;;;;;;45.50;37.50;;;;;12.11;43.02;101685.47;2113282;27;47760;-55
2022/03/02 01:16:16;;;;;;;;;38.60;31.40;;;;;12.11;43.04;101687.25;2112976;27;47689;-50
2022/03/02 01:17:17;;;;;;;;;45.75;39.00;;;;;12.10;43.00;101683.72;2113345;27;47936;-52
2022/03/02 01:18:18;;;;;;;;;47.80;39.40;;;;;12.11;42.91;101681.94;2113325;27;48302;-55
2022/03/02 01:19:18;;;;;;;;;45.00;39.00;;;;;12.09;42.97;101684.59;2113036;27;47536;-54
2022/03/02 01:20:19;;;;;;;;;48.75;39.25;;;;;12.08;42.84;101677.53;2113046;27;47786;-54
2022/03/02 01:21:19;;;;;;;;;47.25;38.75;;;;;12.06;43.04;101681.97;2112983;27;47509;-51
2022/03/02 01:22:20;;;;;;;;;43.75;37.00;;;;;12.07;43.10;101683.75;2113134;27;47576;-51
2022/03/02 01:23:20;;;;;;;;;42.25;37.00;;;;;12.07;42.94;101676.66;2113168;27;47275;-50
2022/03/02 01:24:21;;;;;;;;;46.25;39.00;;;;;12.08;43.15;101681.06;2113444;27;47319;-53
2022/03/02 01:25:21;;;;;;;;;42.00;36.50;;;;;12.09;43.14;101679.28;2113689;27;47776;-50
2022/03/02 01:26:24;;;;;;;;;44.00;37.50;;;;;12.08;43.17;101683.72;2104630;28;47477;-50
2022/03/02 01:27:25;;;;;;;;;48.20;40.20;;;;;12.10;42.91;101685.50;2105138;27;48127;-51
2022/03/02 01:28:25;;;;;;;;;40.50;34.75;;;;;12.09;43.19;101679.28;2113514;27;48065;-52
2022/03/02 01:29:28;;;;;;;;;41.50;36.50;;;;;12.10;43.08;101674.84;2095959;28;47253;-53
2022/03/02 01:30:29;;;;;;;;;40.00;35.80;;;;;12.08;42.94;101678.41;2096332;27;47609;-50
2022/03/02 01:31:29;;;;;;;;;47.75;38.50;;;;;12.08;42.78;101677.53;2104943;28;47061;-53
2022/03/02 01:32:30;;;;;;;;;47.25;37.75;;;;;12.07;42.90;101678.44;2104721;28;47561;-50
2022/03/02 01:33:30;;;;;;;;;48.50;38.75;;;;;12.06;42.87;101682.84;2112857;27;47518;-50
2022/03/02 01:34:31;;;;;;;;;44.75;37.00;;;;;12.04;42.75;101674.00;2113461;27;47531;-52
2022/03/02 01:35:31;;;;;;;;;46.25;37.75;;;;;12.04;42.93;101681.09;2113157;27;48000;-51
2022/03/02 01:36:32;;;;;;;;;42.25;36.00;;;;;12.04;42.77;101681.09;2118647;27;47341;-51
2022/03/02 01:37:32;;;;;;;;;45.25;37.00;;;;;12.03;42.83;101671.38;2121475;27;47593;-53
2022/03/02 01:38:32;;;;;;;;;46.50;37.00;;;;;12.02;42.85;101675.81;2131512;27;48020;-54
2022/03/02 01:39:33;;;;;;;;;41.25;34.25;;;;;12.03;42.68;101666.03;2131375;27;47061;-54
2022/03/02 01:40:34;;;;;;;;;48.00;39.00;;;;;12.04;43.02;101673.13;2130794;27;47565;-51
2022/03/02 01:41:34;;;;;;;;;48.50;39.75;;;;;12.04;42.79;101671.34;2131229;27;47579;-52
2022/03/02 01:42:36;;;;;;;;;45.50;36.75;;;;;12.05;43.04;101666.91;2130966;27;47776;-52
2022/03/02 01:43:37;;;;;;;;;39.20;34.60;;;;;12.04;42.89;101668.69;2108907;27;47731;-52
2022/03/02 01:44:37;;;;;;;;;48.75;40.00;;;;;12.04;42.86;101668.69;2104569;28;47556;-51
2022/03/02 01:45:38;;;;;;;;;46.75;37.00;;;;;12.05;43.04;101672.22;2129236;27;48095;-52
2022/03/02 01:46:38;;;;;;;;;40.50;35.00;;;;;12.05;42.95;101667.78;2131215;27;46582;-50
2022/03/02 01:47:40;;;;;;;;;45.75;36.75;;;;;12.05;43.02;101669.56;2131389;27;47914;-50
2022/03/02 01:48:41;;;;;;;;;42.80;37.20;;;;;12.04;42.90;101666.03;2121605;27;47646;-52
2022/03/02 01:49:41;;;;;;;;;42.00;36.60;;;;;12.06;42.74;101668.66;2121698;27;47669;-54
2022/03/02 01:50:42;;;;;;;;;42.00;36.25;;;;;12.04;42.81;101667.81;2127723;27;48016;-51
2022/03/02 01:51:42;;;;;;;;;51.25;37.75;;;;;12.04;43.24;101662.47;2122624;27;47887;-54
2022/03/02 01:52:43;;;;;;;;;45.00;37.50;;;;;12.05;43.08;101672.22;2119927;27;48018;-50
2022/03/02 01:53:45;;;;;;;;;47.00;40.00;;;;;12.04;43.05;101667.81;2120376;27;47582;-52
2022/03/02 01:54:46;;;;;;;;;48.60;39.80;;;;;12.04;43.01;101662.47;2122453;27;47563;-51
2022/03/02 01:55:47;;;;;;;;;43.00;35.20;;;;;12.03;43.06;101666.03;2127795;27;47969;-53
2022/03/02 01:56:48;;;;;;;;;41.00;35.00;;;;;12.02;43.05;101661.63;2121876;27;47251;-50
2022/03/02 01:57:50;;;;;;;;;48.40;40.20;;;;;12.01;43.15;101660.75;2122152;27;47650;-51
2022/03/02 01:58:51;;;;;;;;;47.40;40.60;;;;;12.01;43.14;101655.44;2131156;27;47837;-53
2022/03/02 01:59:51;;;;;;;;;46.75;38.75;;;;;12.01;43.04;101655.44;2130712;27;47838;-53
2022/03/02 02:00:52;;;;;;;;;22.00;19.75;;;;;12.03;42.90;101652.75;2131356;27;47730;-53
2022/03/02 02:01:53;;;;;;;;;47.00;39.25;;;;;12.02;42.95;101646.53;2131086;27;46677;-52
2022/03/02 02:02:54;;;;;;;;;46.25;38.25;;;;;12.02;42.95;101654.53;2131267;27;47746;-53
2022/03/02 02:03:55;;;;;;;;;48.50;39.00;;;;;12.02;43.09;101649.19;2130767;27;47440;-50
2022/03/02 02:04:55;;;;;;;;;44.75;37.00;;;;;12.02;42.92;101649.19;2131041;27;47892;-54
2022/03/02 02:05:55;;;;;;;;;46.75;37.25;;;;;12.03;43.21;101653.63;2130701;27;47707;-53
2022/03/02 02:06:56;;;;;;;;;43.25;38.00;;;;;12.03;43.22;101650.97;2131037;27;46996;-53
2022/03/02 02:07:56;;;;;;;;;46.00;39.00;;;;;12.03;43.19;101650.97;2131020;27;48127;-53
2022/03/02 02:08:58;;;;;;;;;39.50;35.75;;;;;12.04;43.26;101643.84;2131199;27;47637;-54
2022/03/02 02:09:59;;;;;;;;;39.80;35.00;;;;;12.04;43.08;101647.41;2131336;27;47603;-54
2022/03/02 02:11:01;;;;;;;;;46.80;38.20;;;;;12.04;43.08;101654.50;2130932;27;47566;-53
2022/03/02 02:12:01;;;;;;;;;47.80;40.80;;;;;12.04;43.10;101646.50;2097790;28;48100;-53
2022/03/02 02:13:02;;;;;;;;;48.50;39.50;;;;;12.03;43.31;101648.28;2087380;28;47649;-54
2022/03/02 02:14:03;;;;;;;;;49.40;39.40;;;;;12.03;43.35;101648.28;2113043;27;48831;-53
2022/03/02 02:15:05;;;;;;;;;44.50;36.00;;;;;12.04;43.33;101651.84;2126794;27;46372;-54
2022/03/02 02:16:07;;;;;;;;;51.20;41.40;;;;;12.04;43.29;101642.06;2130938;27;47894;-52
2022/03/02 02:17:07;;;;;;;;;44.40;37.60;;;;;12.03;43.32;101642.09;2130930;27;47341;-54
2022/03/02 02:18:07;;;;;;;;;49.75;41.50;;;;;12.02;43.48;101638.56;2130482;27;47227;-54
2022/03/02 02:19:08;;;;;;;;;54.00;43.00;;;;;12.02;43.42;101637.69;2124320;27;47672;-52
2022/03/02 02:20:10;;;;;;;;;46.50;37.50;;;;;12.02;43.41;101635.91;2122294;27;47625;-51
2022/03/02 02:21:10;;;;;;;;;51.40;40.80;;;;;12.02;43.50;101633.25;2122394;27;47539;-49
2022/03/02 02:22:11;;;;;;;;;47.75;40.75;;;;;12.03;43.45;101639.44;2122192;27;48300;-52
2022/03/02 02:23:12;;;;;;;;;50.75;41.00;;;;;12.02;43.49;101637.69;2104215;28;45842;-48
2022/03/02 02:24:14;;;;;;;;;50.00;42.20;;;;;12.02;43.37;101635.03;2111240;27;47928;-52
2022/03/02 02:25:16;;;;;;;;;49.80;41.00;;;;;12.02;43.45;101637.69;2124343;27;47847;-49
2022/03/02 02:26:21;;;;;;;;;49.00;41.00;;;;;12.01;43.22;101627.94;2131004;27;47424;-50
2022/03/02 02:27:22;;;;;;;;;51.00;42.20;;;;;11.99;43.35;101627.09;2130568;27;47526;-52
2022/03/02 02:28:24;;;;;;;;;51.00;42.00;;;;;11.98;43.51;101628.88;2129220;27;47758;-51
2022/03/02 02:29:27;;;;;;;;;50.20;41.00;;;;;11.98;43.43;101626.22;2122231;27;47757;-51
2022/03/02 02:30:30;;;;;;;;;51.80;42.00;;;;;12.00;43.72;101629.72;2122291;27;47475;-50
2022/03/02 02:31:30;;;;;;;;;48.00;40.80;;;;;11.99;43.52;101619.09;2121947;27;47561;-50
2022/03/02 02:32:31;;;;;;;;;49.75;42.50;;;;;11.98;43.56;101615.56;2122090;27;47708;-50
2022/03/02 02:33:32;;;;;;;;;50.60;41.00;;;;;11.98;43.57;101620.88;2122030;27;48158;-55
2022/03/02 02:34:32;;;;;;;;;48.25;40.75;;;;;11.98;43.66;101620.00;2122077;27;47578;-51
2022/03/02 02:35:33;;;;;;;;;50.50;41.75;;;;;11.97;43.60;101619.13;2121730;27;47564;-54
2022/03/02 02:36:34;;;;;;;;;46.50;39.00;;;;;11.97;43.46;101616.47;2115592;27;47535;-53
2022/03/02 02:37:36;;;;;;;;;53.80;44.00;;;;;11.98;43.84;101617.34;2121725;27;47428;-52
2022/03/02 02:38:37;;;;;;;;;48.20;39.20;;;;;11.97;43.89;101620.91;2124404;27;47735;-50
2022/03/02 02:39:37;;;;;;;;;48.00;40.00;;;;;11.98;43.83;101618.22;2122070;27;47729;-50
2022/03/02 02:40:37;;;;;;;;;53.75;43.00;;;;;11.97;43.59;101613.81;2122666;27;47681;-52
2022/03/02 02:41:38;;;;;;;;;49.00;40.25;;;;;11.99;43.75;101611.13;2122099;27;48032;-52
2022/03/02 02:42:41;;;;;;;;;49.75;40.75;;;;;11.98;43.81;101615.56;2122143;27;47635;-53
2022/03/02 02:43:42;;;;;;;;;48.00;40.40;;;;;11.98;43.70;101614.69;2122116;27;47925;-54
2022/03/02 02:44:43;;;;;;;;;50.00;40.20;;;;;11.98;44.03;101606.72;2122405;27;47886;-53
2022/03/02 02:45:44;;;;;;;;;54.00;43.00;;;;;11.98;43.63;101612.03;2122091;27;47265;-51
2022/03/02 02:46:45;;;;;;;;;50.25;41.50;;;;;11.98;43.85;101607.59;2122254;27;47851;-54
2022/03/02 02:47:56;;;;;;;;;46.00;39.40;;;;;12.00;43.86;101607.56;2122083;27;47966;-53
2022/03/02 02:48:56;;;;;;;;;49.20;40.40;;;;;12.00;43.65;101599.59;2121946;27;47699;-50
2022/03/02 02:49:57;;;;;;;;;29.00;22.00;;;;;12.00;43.77;101610.22;2102834;28;47867;-53
2022/03/02 02:50:57;;;;;;;;;53.50;42.25;;;;;11.98;43.78;101596.94;2099714;28;47276;-50
2022/03/02 02:51:58;;;;;;;;;49.50;40.25;;;;;11.98;43.70;101601.38;2126562;27;48041;-51
2022/03/02 02:53:01;;;;;;;;;47.00;37.00;;;;;11.98;43.76;101596.94;2130592;27;47507;-50
2022/03/02 02:54:02;;;;;;;;;49.40;42.00;;;;;11.96;43.87;101592.56;2121359;27;47233;-51
2022/03/02 02:55:09;;;;;;;;;46.40;39.40;;;;;11.95;43.69;101590.78;2121465;27;47885;-52
2022/03/02 02:56:09;;;;;;;;;47.80;39.60;;;;;11.96;43.64;101592.56;2130336;27;48045;-53
2022/03/02 02:57:10;;;;;;;;;46.25;40.00;;;;;11.94;43.79;101587.25;2096411;28;47764;-53
2022/03/02 02:58:11;;;;;;;;;52.00;40.75;;;;;11.94;44.00;101586.34;2095038;28;47206;-50
2022/03/02 02:59:12;;;;;;;;;49.40;40.60;;;;;11.95;43.90;101590.78;2121720;27;47616;-51
2022/03/02 03:00:16;;;;;;;;;50.50;41.50;;;;;11.94;43.73;101587.25;2128063;27;47320;-52
2022/03/02 03:01:17;;;;;;;;;46.40;39.20;;;;;11.94;43.77;101581.03;2129193;27;47498;-51
2022/03/02 03:02:17;;;;;;;;;49.00;40.25;;;;;11.94;43.78;101583.69;2122010;27;47189;-49
2022/03/02 03:03:18;;;;;;;;;49.50;39.75;;;;;11.93;44.05;101581.94;2122241;27;47661;-53
2022/03/02 03:04:19;;;;;;;;;51.60;41.20;;;;;11.93;43.74;101576.59;2122004;27;47786;-50
2022/03/02 03:05:22;;;;;;;;;48.75;39.00;;;;;11.93;44.32;101573.94;2122053;27;48060;-55
2022/03/02 03:06:23;;;;;;;;;51.20;41.60;;;;;11.92;44.03;101572.19;2122230;27;47637;-54
2022/03/02 03:07:23;;;;;;;;;48.75;41.75;;;;;11.92;44.00;101572.19;2122099;27;47446;-52
2022/03/02 03:08:23;;;;;;;;;51.00;42.00;;;;;11.92;43.99;101574.84;2122000;27;48054;-52
2022/03/02 03:09:24;;;;;;;;;49.50;41.00;;;;;11.90;43.93;101568.69;2121915;27;47636;-53
2022/03/02 03:10:25;;;;;;;;;47.75;40.00;;;;;11.89;43.90;101567.81;2121899;27;47560;-52
2022/03/02 03:11:26;;;;;;;;;50.00;40.80;;;;;11.89;43.98;101570.47;2121903;27;47321;-53
2022/03/02 03:12:26;;;;;;;;;51.25;42.25;;;;;11.90;43.75;101568.69;2122168;27;47452;-53
2022/03/02 03:13:27;;;;;;;;;49.25;41.00;;;;;11.89;44.13;101566.91;2121892;27;47557;-52
2022/03/02 03:14:27;;;;;;;;;49.50;40.75;;;;;11.87;43.87;101566.94;2122019;27;46846;-51
2022/03/02 03:15:28;;;;;;;;;48.25;40.00;;;;;11.89;44.10;101566.91;2122069;27;47928;-54
2022/03/02 03:16:29;;;;;;;;;50.40;41.60;;;;;11.86;44.30;101562.53;2120365;27;46365;-52
2022/03/02 03:17:29;;;;;;;;;49.00;40.25;;;;;11.87;44.12;101563.41;2121296;27;47722;-50
2022/03/02 03:18:29;;;;;;;;;47.00;39.00;;;;;11.86;44.12;101561.66;2126012;27;47849;-54
2022/03/02 03:19:30;;;;;;;;;52.00;41.75;;;;;11.85;44.02;101566.09;2121890;27;48264;-53
2022/03/02 03:20:31;;;;;;;;;48.75;41.00;;;;;11.84;44.26;101567.00;2121558;27;47772;-53
2022/03/02 03:21:31;;;;;;;;;48.75;42.00;;;;;11.84;44.07;101563.47;2124750;27;47867;-51
2022/03/02 03:22:32;;;;;;;;;48.25;39.50;;;;;11.84;44.11;101566.13;2130565;27;46929;-50
2022/03/02 03:23:32;;;;;;;;;48.75;41.50;;;;;11.83;44.15;101562.56;2130355;27;47335;-54
2022/03/02 03:24:34;;;;;;;;;47.25;40.00;;;;;11.82;44.39;101568.81;2120624;27;47381;-52
2022/03/02 03:25:34;;;;;;;;;49.80;41.20;;;;;11.82;44.26;101562.59;2112482;27;47347;-51
2022/03/02 03:26:35;;;;;;;;;51.25;41.25;;;;;11.81;44.23;101559.03;2126279;27;47461;-51
2022/03/02 03:27:38;;;;;;;;;49.50;41.75;;;;;11.80;44.60;101567.91;2130378;27;47441;-54
2022/03/02 03:28:38;;;;;;;;;51.40;42.20;;;;;11.80;44.25;101565.25;2130227;27;47908;-52
2022/03/02 03:29:39;;;;;;;;;47.50;41.00;;;;;11.78;44.40;101570.56;2130194;27;47442;-50
2022/03/02 03:30:39;;;;;;;;;46.00;39.00;;;;;11.79;44.42;101563.50;2130402;27;47538;-50
2022/03/02 03:31:39;;;;;;;;;50.75;42.25;;;;;11.77;44.63;101568.81;2130154;27;47414;-51
2022/03/02 03:32:40;;;;;;;;;47.50;38.75;;;;;11.78;44.59;101567.03;2122279;27;47548;-50
2022/03/02 03:33:41;;;;;;;;;54.75;43.25;;;;;11.77;44.41;101574.13;2122211;27;47736;-53
2022/03/02 03:34:41;;;;;;;;;47.75;40.25;;;;;11.76;44.40;101567.06;2121772;27;47420;-55
2022/03/02 03:35:42;;;;;;;;;52.00;41.25;;;;;11.77;44.57;101567.94;2122328;27;45458;-56
2022/03/02 03:36:42;;;;;;;;;48.50;40.25;;;;;11.75;44.59;101567.94;2112861;27;48090;-55
2022/03/02 03:37:43;;;;;;;;;54.75;43.50;;;;;11.76;44.53;101569.72;2112835;27;47974;-50
2022/03/02 03:38:45;;;;;;;;;52.80;43.20;;;;;11.75;44.44;101564.41;2121904;27;48374;-54
2022/03/02 03:39:46;;;;;;;;;49.20;40.40;;;;;11.75;44.67;101570.63;2129124;27;47132;-50
2022/03/02 03:40:46;;;;;;;;;46.00;39.00;;;;;11.74;44.59;101571.50;2130270;27;47419;-54
2022/03/02 03:41:47;;;;;;;;;38.50;35.00;;;;;11.74;44.57;101570.63;2103308;28;47951;-50
2022/03/02 03:42:49;;;;;;;;;47.50;38.00;;;;;11.74;44.54;101571.50;2098118;28;48045;-52
2022/03/02 03:43:49;;;;;;;;;48.20;39.40;;;;;11.74;44.70;101576.84;2122872;27;47489;-54
2022/03/02 03:44:50;;;;;;;;;47.00;39.50;;;;;11.72;44.63;101573.31;2130368;27;47707;-53
2022/03/02 03:45:51;;;;;;;;;48.20;39.20;;;;;11.72;44.71;101565.34;2130409;27;46544;-53
2022/03/02 03:46:52;;;;;;;;;44.00;37.00;;;;;11.72;44.72;101569.78;2130434;27;47862;-50
2022/03/02 03:47:53;;;;;;;;;49.00;40.75;;;;;11.70;44.57;101568.94;2129020;27;47959;-50
2022/03/02 03:48:53;;;;;;;;;46.50;39.25;;;;;11.68;44.52;101558.28;2121568;27;47595;-51
2022/03/02 03:49:54;;;;;;;;;50.50;40.25;;;;;11.68;44.69;101560.94;2107858;27;47844;-50
2022/03/02 03:50:54;;;;;;;;;51.75;42.50;;;;;11.68;44.70;101562.72;2111865;27;47597;-52
2022/03/02 03:51:54;;;;;;;;;45.25;38.50;;;;;11.68;44.57;101562.72;2129624;27;48143;-53
2022/03/02 03:52:55;;;;;;;;;48.25;40.50;;;;;11.67;44.57;101553.88;2100205;28;47586;-53
2022/03/02 03:53:55;;;;;;;;;46.50;39.50;;;;;11.66;44.51;101560.09;2094920;28;48015;-52
2022/03/02 03:54:56;;;;;;;;;49.00;41.25;;;;;11.65;44.78;101555.66;2128136;27;47735;-53
2022/03/02 03:55:57;;;;;;;;;52.40;43.00;;;;;11.65;44.65;101554.78;2130367;27;47565;-49
2022/03/02 03:56:57;;;;;;;;;44.00;36.75;;;;;11.65;44.74;101555.66;2129605;27;47646;-54
2022/03/02 03:57:58;;;;;;;;;45.50;38.25;;;;;11.64;44.60;101548.59;2130259;27;47468;-52
2022/03/02 03:59:01;;;;;;;;;50.50;40.00;;;;;11.66;44.51;101543.25;2130124;27;47255;-53
2022/03/02 04:00:04;;;;;;;;;48.00;39.80;;;;;11.65;44.61;101553.00;2121503;27;47395;-52
2022/03/02 04:01:05;;;;;;;;;48.40;40.40;;;;;11.66;44.71;101553.88;2116032;27;47656;-51
2022/03/02 04:02:05;;;;;;;;;40.50;35.75;;;;;11.64;44.60;101545.94;2111879;27;46745;-52
2022/03/02 04:03:06;;;;;;;;;47.00;39.75;;;;;11.65;44.74;101554.78;2111812;27;47222;-50
2022/03/02 04:04:06;;;;;;;;;51.00;42.00;;;;;11.66;44.88;101553.88;2124134;27;47259;-54
2022/03/02 04:05:07;;;;;;;;;47.25;40.25;;;;;11.65;44.57;101546.81;2120986;27;47903;-53
2022/03/02 04:06:08;;;;;;;;;49.80;41.40;;;;;11.65;44.72;101549.47;2121471;27;47826;-52
2022/03/02 04:07:08;;;;;;;;;44.25;34.75;;;;;11.64;44.39;101547.72;2130177;27;48020;-53
2022/03/02 04:08:08;;;;;;;;;47.25;39.25;;;;;11.64;44.63;101550.38;2130344;27;47455;-55
2022/03/02 04:09:09;;;;;;;;;46.75;39.00;;;;;11.63;44.59;101549.50;2126329;27;48476;-53
2022/03/02 04:10:10;;;;;;;;;50.75;42.00;;;;;11.60;44.65;101549.53;2122059;27;47591;-51
2022/03/02 04:11:11;;;;;;;;;53.00;42.20;;;;;11.60;44.62;101551.31;2121167;27;47289;-49
2022/03/02 04:12:11;;;;;;;;;45.00;36.75;;;;;11.59;44.55;101552.22;2121781;27;47727;-52
2022/03/02 04:13:12;;;;;;;;;47.00;39.25;;;;;11.57;44.58;101549.59;2102895;28;47400;-53
2022/03/02 04:14:13;;;;;;;;;48.75;40.25;;;;;11.56;44.60;101550.50;2103576;28;47191;-50
2022/03/02 04:15:14;;;;;;;;;49.25;40.50;;;;;11.53;45.01;101550.50;2121260;27;47495;-52
2022/03/02 04:16:14;;;;;;;;;52.00;42.00;;;;;11.53;44.83;101550.50;2121564;27;47741;-52
2022/03/02 04:17:15;;;;;;;;;43.50;37.00;;;;;11.52;44.80;101551.41;2121390;27;47802;-53
2022/03/02 04:18:16;;;;;;;;;46.25;39.50;;;;;11.53;44.60;101554.94;2121901;27;48212;-52
2022/03/02 04:19:16;;;;;;;;;46.50;38.50;;;;;11.53;44.81;101554.94;2121319;27;47639;-51
2022/03/02 04:20:17;;;;;;;;;51.75;42.75;;;;;11.52;44.51;101551.41;2121592;27;47669;-51
2022/03/02 04:21:17;;;;;;;;;45.25;39.25;;;;;11.53;44.76;101554.94;2121436;27;47665;-49
2022/03/02 04:22:17;;;;;;;;;47.75;38.50;;;;;11.52;44.78;101551.41;2121343;27;47792;-53
2022/03/02 04:23:19;;;;;;;;;48.75;40.75;;;;;11.52;44.50;101547.88;2121802;27;47139;-51
2022/03/02 04:24:19;;;;;;;;;49.80;41.00;;;;;11.50;44.62;101550.56;2122236;27;47351;-50
2022/03/02 04:25:20;;;;;;;;;52.50;41.75;;;;;11.50;44.96;101543.44;2130393;27;47651;-53
2022/03/02 04:26:21;;;;;;;;;45.00;36.75;;;;;11.48;44.89;101550.56;2122849;27;46366;-52
2022/03/02 04:27:21;;;;;;;;;51.80;42.00;;;;;11.48;44.60;101547.03;2121698;27;47632;-51
2022/03/02 04:28:22;;;;;;;;;51.00;42.75;;;;;11.46;44.89;101539.09;2121666;27;47144;-53
2022/03/02 04:29:22;;;;;;;;;47.00;37.75;;;;;11.46;44.80;101539.09;2122103;27;46641;-51
2022/03/02 04:30:23;;;;;;;;;30.75;28.00;;;;;11.44;44.67;101535.56;2121807;27;47781;-52
2022/03/02 04:31:24;;;;;;;;;49.25;41.00;;;;;11.44;44.85;101535.56;2112808;27;47510;-53
2022/03/02 04:32:24;;;;;;;;;54.00;43.00;;;;;11.45;45.12;101541.75;2111996;27;46767;-52
2022/03/02 04:33:25;;;;;;;;;53.00;42.25;;;;;11.44;44.92;101532.03;2121649;27;47465;-52
2022/03/02 04:34:26;;;;;;;;;49.25;40.25;;;;;11.44;44.65;101535.56;2121224;27;47384;-53
2022/03/02 04:35:26;;;;;;;;;50.50;41.50;;;;;11.44;44.69;101529.38;2114342;27;46818;-53
2022/03/02 04:36:27;;;;;;;;;48.25;39.50;;;;;11.44;44.95;101530.25;2103010;27;46487;-52